• Join FlightAware (Why Join?)
  • Login
  • US Flag 
08:51AM EST


 

Airport Tracker/Info


-or-


 

Live Flight TrackerFlight Track Log ✈ JBU24 ✈ 16-May-2013 ✈ KJFK - KSYR

Flight Track Log - Related Links

Times and Time Zones

All times are in EDT time to prevent confusion due to time zone crossing. See the JBU24 flight status page for this flight to view local times or setup timezone preferences in your user account.

Time Position Orientation Groundspeed Altitude Reporting Facility
EDT Latitude Longitude Course Direction KTS MPH feet Rate Location/Type
05:20PM 40.6333 -73.7167 57° Northeast 209 241 2,000  Level New York TRACON
05:21PM 40.6667 -73.6500 57° Northeast 266 306 4,700 3,050 Climbing New York TRACON
05:22PM 40.7167 -73.5667 52° Northeast 284 327 8,100 3,074 Climbing New York TRACON
05:23PM 40.7833 -73.5167 30° Northeast 302 348 10,900 2,281 Climbing New York TRACON
05:24PM 40.8667 -73.5667 336° Northwest 316 364 12,700 2,300 Climbing New York TRACON
05:25PM 40.9167 -73.6667 304° West 320 368 15,500 2,200 Climbing New York TRACON
05:26PM 40.9500 -73.7667 294° West 321 369 17,100 842 Climbing New York TRACON
05:27PM 40.9833 -73.8667 294° West 321 369 17,100  Level New York TRACON
05:28PM 41.0333 -73.9667 304° West 319 367 17,100  Level New York TRACON
05:29PM 41.0667 -74.0833 291° West 318 366 17,100 -38 Level New York TRACON
05:31PM 41.1186 -74.2497 293° West 335 386 17,000 -39 Descending New York Center
05:32PM 41.1553 -74.3533 295° West 317 365 17,000  Level New York Center
05:33PM 41.1892 -74.4628 292° West 317 365 17,000  Level New York Center
05:34PM 41.2256 -74.5694 294° West 317 365 17,000  Level New York Center
05:35PM 41.2786 -74.6608 308° West 322 371 17,000 99 Level New York Center
05:36PM 41.3339 -74.7525 309° West 322 371 17,200 655 Climbing New York Center
05:37PM 41.3892 -74.8442 309° West 322 371 18,300 900 Climbing New York Center
05:38PM 41.4503 -74.9419 310° West 335 386 19,000 347 Climbing New York Center
05:39PM 41.5072 -75.0369 309° West 335 386 19,000 508 Level New York Center
05:40PM 41.5622 -75.1319 308° West 329 379 20,000 1,008 Climbing New York Center
05:41PM 41.6211 -75.2275 310° West 329 379 21,000 984 Climbing New York Center
05:42PM 41.6797 -75.3258 309° West 334 384 22,000 504 Climbing New York Center
05:43PM 41.7364 -75.4214 308° West 334 384 22,000  Level New York Center
05:44PM 41.7950 -75.5200 309° West 334 384 22,000  Level New York Center
05:45PM 41.8536 -75.6189 309° West 334 384 22,000  Level New York Center
05:46PM 41.9119 -75.7178 308° West 334 384 22,000  Level New York Center
05:47PM 41.9703 -75.8169 308° West 334 384 22,000 -610 Level New York Center
05:48PM 42.0264 -75.9164 307° West 334 384 20,800 -1,525 Descending New York Center
05:49PM 42.0844 -76.0131 309° West 334 384 19,000 -1,686 Descending New York Center
05:50PM 42.1411 -76.1014 311° West 334 384 17,400 -992 Descending New York Center
05:51PM 42.2311 -76.1339 345° North 324 373 17,000 -850 Descending New York Center
05:52PM 42.3297 -76.1194 North 314 361 15,700 -1,402 Descending New York Center
05:53PM 42.4078 -76.1100 North 340 391 14,500 -1,944 Descending Boston Center
05:54PM 42.5000 -76.0956 North 334 384 12,200 -2,115 Descending Boston Center
05:55PM 42.5897 -76.0897 North 323 372 10,200 -1,461 Descending Boston Center
05:56PM 42.6631 -76.0828 North 280 322 9,400 -1,200 Descending Boston Center
05:57PM 42.7381 -76.0786 North 269 310 7,900 -1,688 Descending Boston Center
05:58PM 42.8217 -76.0753 North 274 315 5,800 -1,881 Descending Boston Center
05:59PM 42.9003 -76.0344 21° North 271 312 3,700 -1,353 Descending Boston Center
06:00PM 42.9683 -75.9872 27° Northeast 243 280 2,800 -496 Descending Boston Center
06:01PM 43.0147 -75.9728 13° North 198 228 2,700 -393 Descending Boston Center
06:02PM 43.0528 -76.0206 317° Northwest 153 176 2,000 -661 Descending Boston Center
06:03PM 43.0789 -76.0533 317° Northwest 110 127 1,300 -694 Descending Boston Center
06:04PM 43.1006 -76.0889 310° West 118 136 600 -689 Descending Boston Center